Time;durP1;ratioP1;P1;durP2;ratioP2;P2;SDS_P1;SDS_P2;PMS_P1;PMS_P2;Temp;Humidity;BMP_temperature;BMP_pressure;BME280_temperature;BME280_humidity;BME280_pressure;Samples;Min_cycle;Max_cycle;Signal;HPM_P1;HPM_P2
2021/01/24 00:00:45;;;;;;;3.20;2.10;;;16.70;54.10;;;;;;5024440;28;20040;-68
2021/01/24 00:03:10;;;;;;;3.65;1.98;;;16.60;54.00;;;;;;5031004;28;20013;-69
2021/01/24 00:05:36;;;;;;;4.32;2.15;;;16.60;54.10;;;;;;5030781;28;20133;-71
2021/01/24 00:08:02;;;;;;;5.30;2.53;;;16.60;54.10;;;;;;5030548;28;20018;-68
2021/01/24 00:10:27;;;;;;;3.80;2.10;;;16.50;54.00;;;;;;5030066;28;20413;-78
2021/01/24 00:12:53;;;;;;;5.50;2.42;;;16.50;54.10;;;;;;5029193;28;20035;-69
2021/01/24 00:15:18;;;;;;;3.40;2.20;;;16.50;54.10;;;;;;5030527;28;20068;-75
2021/01/24 00:17:44;;;;;;;3.47;1.83;;;16.40;54.00;;;;;;5030352;28;20152;-69
2021/01/24 00:20:11;;;;;;;4.78;2.28;;;16.40;54.10;;;;;;5010618;28;20033;-68
2021/01/24 00:22:37;;;;;;;4.50;1.90;;;16.40;54.00;;;;;;5010548;28;20029;-69
2021/01/24 00:25:04;;;;;;;3.83;2.00;;;16.40;54.00;;;;;;5011155;28;20133;-70
2021/01/24 00:27:29;;;;;;;3.35;1.90;;;16.30;54.00;;;;;;5010718;28;20478;-69
2021/01/24 00:29:55;;;;;;;3.95;2.15;;;16.30;54.10;;;;;;5010636;28;20138;-68
2021/01/24 00:32:21;;;;;;;5.25;2.05;;;16.30;54.10;;;;;;5010919;28;20394;-70
2021/01/24 00:34:46;;;;;;;4.10;1.83;;;16.30;54.10;;;;;;5010612;28;20061;-69
2021/01/24 00:37:13;;;;;;;3.63;1.85;;;16.20;54.00;;;;;;5010919;28;20123;-70
2021/01/24 00:39:38;;;;;;;4.10;2.35;;;16.20;54.00;;;;;;5010770;28;20097;-68
2021/01/24 00:42:04;;;;;;;4.07;2.13;;;16.20;54.00;;;;;;5011970;28;20537;-75
2021/01/24 00:44:30;;;;;;;4.32;1.83;;;16.20;54.10;;;;;;5015325;28;20030;-70
2021/01/24 00:46:55;;;;;;;4.72;2.40;;;16.10;54.10;;;;;;5014340;28;20394;-68
2021/01/24 00:49:21;;;;;;;3.95;1.95;;;16.10;54.00;;;;;;5014308;28;20441;-70
2021/01/24 00:51:47;;;;;;;4.15;2.00;;;16.10;54.10;;;;;;5014252;28;20026;-68
2021/01/24 00:54:12;;;;;;;3.85;1.95;;;16.10;54.00;;;;;;5014218;28;20029;-69
2021/01/24 00:56:38;;;;;;;3.30;1.85;;;16.00;54.00;;;;;;5014077;28;20030;-69
2021/01/24 00:59:04;;;;;;;3.10;1.83;;;16.00;54.10;;;;;;5014980;28;20084;-71
2021/01/24 01:01:29;;;;;;;3.85;2.00;;;16.00;54.10;;;;;;5015277;28;20030;-69
2021/01/24 01:03:55;;;;;;;3.55;1.80;;;16.00;54.10;;;;;;5033556;28;20033;-68
2021/01/24 01:06:20;;;;;;;3.05;1.98;;;15.90;54.10;;;;;;5033657;28;20025;-68
2021/01/24 01:08:46;;;;;;;5.20;2.20;;;15.90;54.10;;;;;;5033612;28;20032;-69
2021/01/24 01:11:11;;;;;;;3.45;1.90;;;15.90;54.10;;;;;;5033734;28;20025;-69
2021/01/24 01:13:37;;;;;;;4.30;1.63;;;15.80;54.00;;;;;;5033420;28;20064;-71
2021/01/24 01:16:03;;;;;;;2.58;1.70;;;15.80;54.10;;;;;;5033624;28;20091;-68
2021/01/24 01:18:29;;;;;;;4.13;1.90;;;15.80;54.10;;;;;;5031247;28;20554;-69
2021/01/24 01:20:56;;;;;;;4.45;2.10;;;15.80;54.10;;;;;;5033185;28;20025;-69
2021/01/24 01:23:22;;;;;;;3.30;2.03;;;15.80;54.00;;;;;;5033591;28;20033;-70
2021/01/24 01:25:51;;;;;;;3.38;1.92;;;15.70;54.00;;;;;;5033307;28;20113;-70
2021/01/24 01:28:16;;;;;;;3.25;1.85;;;15.70;54.10;;;;;;5033468;28;20032;-71
2021/01/24 01:30:42;;;;;;;3.88;1.63;;;15.70;54.10;;;;;;5033218;28;20041;-69
2021/01/24 01:33:07;;;;;;;3.80;2.05;;;15.70;54.10;;;;;;5033224;28;20540;-69
2021/01/24 01:35:33;;;;;;;3.45;2.00;;;15.70;54.10;;;;;;5032212;28;20030;-69
2021/01/24 01:37:58;;;;;;;4.10;2.08;;;15.70;54.10;;;;;;5033512;28;20041;-71
2021/01/24 01:40:24;;;;;;;2.95;1.70;;;15.60;54.10;;;;;;5033248;28;20421;-72
2021/01/24 01:42:49;;;;;;;3.08;1.80;;;15.60;54.10;;;;;;5032971;28;20104;-70
2021/01/24 01:45:15;;;;;;;3.45;1.90;;;15.60;54.10;;;;;;5033245;28;20030;-68
2021/01/24 01:47:41;;;;;;;2.88;1.90;;;15.60;54.10;;;;;;5013169;28;20064;-71
2021/01/24 01:50:07;;;;;;;4.32;1.83;;;15.60;54.10;;;;;;5013265;28;20434;-68
2021/01/24 01:52:33;;;;;;;4.07;2.10;;;15.50;54.00;;;;;;5014505;28;20022;-74
2021/01/24 01:54:59;;;;;;;3.75;2.20;;;15.50;54.00;;;;;;5033313;28;20044;-68
2021/01/24 01:57:25;;;;;;;4.70;2.15;;;15.50;54.00;;;;;;5032803;28;20025;-68
2021/01/24 01:59:51;;;;;;;4.15;2.10;;;15.50;54.60;;;;;;5013270;28;20025;-69
2021/01/24 02:02:42;;;;;;;2.47;1.73;;;15.40;54.00;;;;;;5013193;28;20036;-68
2021/01/24 02:05:12;;;;;;;3.47;1.95;;;15.40;53.90;;;;;;5012971;28;20497;-69
2021/01/24 02:07:46;;;;;;;3.42;1.92;;;15.40;53.90;;;;;;5032025;28;20029;-69
2021/01/24 02:10:29;;;;;;;3.38;1.85;;;15.40;53.90;;;;;;5029979;28;20370;-68
2021/01/24 02:13:04;;;;;;;3.67;1.73;;;15.40;53.90;;;;;;5032368;28;20076;-69
2021/01/24 02:15:32;;;;;;;2.53;1.55;;;15.30;53.90;;;;;;5033017;28;20029;-68
2021/01/24 02:18:04;;;;;;;5.10;2.00;;;15.30;53.90;;;;;;5032522;28;20076;-70
2021/01/24 02:20:56;;;;;;;3.65;1.73;;;15.30;53.80;;;;;;5032791;28;20067;-71
2021/01/24 02:23:24;;;;;;;2.85;1.70;;;15.30;53.80;;;;;;5032367;28;20028;-72
2021/01/24 02:26:16;;;;;;;3.45;2.10;;;15.30;53.80;;;;;;5032101;28;20048;-69
2021/01/24 02:28:53;;;;;;;2.95;1.67;;;15.20;53.80;;;;;;5016124;28;20038;-71
2021/01/24 02:31:20;;;;;;;3.33;1.90;;;15.20;53.80;;;;;;5011231;28;20033;-68
2021/01/24 02:33:49;;;;;;;3.38;1.67;;;15.20;53.70;;;;;;5012154;28;20088;-68
2021/01/24 02:36:17;;;;;;;3.05;1.80;;;15.20;53.70;;;;;;5012574;28;20033;-69
2021/01/24 02:38:43;;;;;;;2.92;1.67;;;15.20;53.80;;;;;;5012074;28;20052;-69
2021/01/24 02:41:13;;;;;;;2.67;1.73;;;15.20;53.80;;;;;;5012358;28;20100;-69
2021/01/24 02:43:44;;;;;;;2.75;1.58;;;15.20;53.70;;;;;;5012599;28;20486;-68
2021/01/24 02:46:11;;;;;;;2.80;1.63;;;15.10;53.70;;;;;;5012038;28;20022;-71
2021/01/24 02:48:37;;;;;;;4.43;2.20;;;15.10;53.60;;;;;;5011996;28;20509;-71
2021/01/24 02:51:03;;;;;;;3.75;1.77;;;15.10;53.60;;;;;;5012254;28;20010;-68
2021/01/24 02:53:32;;;;;;;3.17;1.77;;;15.10;53.60;;;;;;5012395;28;20029;-69
2021/01/24 02:55:59;;;;;;;4.32;2.17;;;15.10;53.60;;;;;;5012339;28;20021;-69
2021/01/24 02:58:25;;;;;;;3.75;1.98;;;15.00;54.10;;;;;;5011613;28;20038;-70
2021/01/24 03:00:51;;;;;;;3.35;2.03;;;15.00;53.50;;;;;;5012409;28;20026;-71
2021/01/24 03:03:16;;;;;;;3.03;1.77;;;15.00;53.50;;;;;;5011772;28;20033;-70
2021/01/24 03:05:42;;;;;;;2.97;1.85;;;15.00;53.60;;;;;;5011047;28;20030;-71
2021/01/24 03:08:07;;;;;;;3.28;1.70;;;15.00;53.60;;;;;;5012015;28;20101;-68
2021/01/24 03:10:33;;;;;;;3.00;1.70;;;15.00;53.60;;;;;;5010360;28;20521;-71
2021/01/24 03:13:08;;;;;;;3.20;1.90;;;15.00;53.50;;;;;;5011031;28;20030;-69
2021/01/24 03:15:34;;;;;;;4.10;1.88;;;14.90;53.50;;;;;;5018402;28;20080;-68
2021/01/24 03:18:00;;;;;;;3.15;1.80;;;14.90;53.50;;;;;;5030833;28;20038;-67
2021/01/24 03:20:28;;;;;;;4.57;1.83;;;14.90;53.50;;;;;;5031398;28;20394;-69
2021/01/24 03:22:54;;;;;;;2.67;1.60;;;14.90;53.50;;;;;;5031294;28;20053;-69
2021/01/24 03:25:22;;;;;;;3.75;1.55;;;14.90;53.50;;;;;;5031301;28;20024;-69
2021/01/24 03:27:48;;;;;;;2.88;1.70;;;14.90;53.60;;;;;;5030832;28;20037;-70
2021/01/24 03:30:14;;;;;;;2.78;1.60;;;14.80;53.40;;;;;;5031033;28;20036;-69
2021/01/24 03:32:40;;;;;;;4.95;1.90;;;14.80;53.40;;;;;;5031237;28;20090;-69
2021/01/24 03:35:06;;;;;;;3.63;1.70;;;14.80;53.40;;;;;;5030391;28;20482;-72
2021/01/24 03:37:32;;;;;;;3.80;1.80;;;14.80;53.40;;;;;;5030978;28;20026;-68
2021/01/24 03:39:58;;;;;;;3.15;1.73;;;14.80;53.40;;;;;;5031414;28;20033;-75
2021/01/24 03:42:23;;;;;;;3.22;1.52;;;14.80;53.40;;;;;;5031024;28;20030;-77
2021/01/24 03:44:49;;;;;;;4.05;1.40;;;14.80;53.40;;;;;;5030759;28;20033;-68
2021/01/24 03:47:15;;;;;;;3.05;1.42;;;14.80;53.40;;;;;;5031264;28;20030;-68
2021/01/24 03:49:41;;;;;;;3.60;1.65;;;14.70;53.30;;;;;;5030851;28;20481;-70
2021/01/24 03:52:07;;;;;;;3.58;1.77;;;14.70;53.30;;;;;;5030396;28;20034;-69
2021/01/24 03:54:32;;;;;;;3.72;1.70;;;14.70;53.40;;;;;;5030744;28;20080;-74
2021/01/24 03:56:58;;;;;;;2.38;1.45;;;14.70;53.30;;;;;;5031173;28;20033;-71
2021/01/24 03:59:24;;;;;;;2.95;1.85;;;14.70;53.30;;;;;;5030810;28;20390;-71
2021/01/24 04:01:49;;;;;;;4.65;2.33;;;14.70;53.30;;;;;;5030527;28;20097;-69
2021/01/24 04:04:15;;;;;;;3.28;1.60;;;14.60;53.30;;;;;;5029439;28;20040;-75
2021/01/24 04:06:41;;;;;;;3.55;1.90;;;14.60;53.30;;;;;;5030623;28;20064;-68
2021/01/24 04:09:07;;;;;;;2.45;1.60;;;14.60;53.30;;;;;;5014350;28;20038;-68
2021/01/24 04:11:32;;;;;;;2.95;1.85;;;14.60;53.30;;;;;;5010727;28;20029;-67
2021/01/24 04:13:58;;;;;;;3.88;1.52;;;14.60;53.30;;;;;;5011203;28;20030;-68
2021/01/24 04:16:23;;;;;;;3.47;1.63;;;14.60;53.30;;;;;;5012957;28;20030;-68
2021/01/24 04:18:49;;;;;;;3.20;1.90;;;14.60;53.20;;;;;;5013342;28;20521;-68
2021/01/24 04:21:15;;;;;;;2.38;1.45;;;14.50;53.20;;;;;;5014941;28;20037;-69
2021/01/24 04:23:40;;;;;;;2.83;1.50;;;14.60;53.30;;;;;;5014580;28;20482;-70
2021/01/24 04:26:06;;;;;;;3.13;1.95;;;14.60;53.30;;;;;;5015447;28;20040;-71
2021/01/24 04:28:32;;;;;;;2.65;1.60;;;14.50;53.20;;;;;;5014517;28;20041;-68
2021/01/24 04:30:57;;;;;;;2.92;1.58;;;14.50;53.20;;;;;;5013737;28;20037;-72
2021/01/24 04:33:23;;;;;;;2.83;1.73;;;14.50;53.20;;;;;;5014806;28;20451;-68
2021/01/24 04:35:49;;;;;;;3.33;1.60;;;14.50;53.30;;;;;;5014322;28;20018;-68
2021/01/24 04:38:14;;;;;;;2.75;1.48;;;14.50;53.30;;;;;;5014483;28;20045;-68
2021/01/24 04:40:40;;;;;;;3.92;1.55;;;14.40;53.10;;;;;;5014283;28;20478;-68
2021/01/24 04:43:07;;;;;;;2.95;1.90;;;14.40;53.10;;;;;;5014824;28;20106;-68
2021/01/24 04:45:32;;;;;;;3.05;1.48;;;14.40;53.10;;;;;;5014341;28;20517;-68
2021/01/24 04:47:58;;;;;;;2.85;1.45;;;14.40;53.10;;;;;;5014816;28;20097;-68
2021/01/24 04:50:26;;;;;;;3.42;1.67;;;14.40;53.20;;;;;;5014576;28;20034;-68
2021/01/24 04:52:52;;;;;;;2.58;1.50;;;14.40;53.20;;;;;;5014066;28;20553;-68
2021/01/24 04:55:18;;;;;;;3.00;1.50;;;14.40;53.10;;;;;;5014200;28;20113;-68
2021/01/24 04:57:45;;;;;;;3.08;1.70;;;14.40;53.60;;;;;;5013726;28;20030;-72
2021/01/24 05:00:12;;;;;;;2.90;1.58;;;14.40;53.20;;;;;;5014725;28;20034;-69
2021/01/24 05:02:37;;;;;;;3.30;1.90;;;14.40;53.10;;;;;;5013943;28;20560;-68
2021/01/24 05:05:04;;;;;;;3.85;1.70;;;14.30;53.20;;;;;;5020810;28;20034;-71
2021/01/24 05:07:30;;;;;;;3.33;1.77;;;14.30;53.10;;;;;;5014459;28;20034;-67
2021/01/24 05:09:57;;;;;;;3.00;1.67;;;14.30;53.20;;;;;;5013442;28;20505;-70
2021/01/24 05:12:23;;;;;;;3.10;1.38;;;14.30;53.20;;;;;;5013807;28;20375;-68
2021/01/24 05:14:49;;;;;;;2.15;1.30;;;14.30;53.20;;;;;;5013786;28;20108;-69
2021/01/24 05:17:16;;;;;;;3.15;1.48;;;14.30;53.20;;;;;;5014104;28;20398;-68
2021/01/24 05:19:43;;;;;;;2.85;1.40;;;14.30;53.30;;;;;;5013805;28;20033;-67
2021/01/24 05:22:10;;;;;;;2.42;1.50;;;14.20;53.20;;;;;;5013996;28;20071;-68
2021/01/24 05:24:36;;;;;;;3.13;1.65;;;14.20;53.30;;;;;;5013683;28;20033;-67
2021/01/24 05:27:10;;;;;;;3.08;1.80;;;14.20;53.30;;;;;;5013493;28;20026;-68
2021/01/24 05:29:39;;;;;;;3.67;2.10;;;14.20;53.30;;;;;;5012995;28;20536;-67
2021/01/24 05:32:05;;;;;;;1.90;1.40;;;14.20;53.30;;;;;;5014221;28;20026;-68
2021/01/24 05:34:32;;;;;;;2.47;1.52;;;14.20;53.30;;;;;;5012991;28;20402;-68
2021/01/24 05:36:58;;;;;;;2.85;1.50;;;14.10;53.20;;;;;;5013671;28;20109;-68
2021/01/24 05:39:26;;;;;;;2.67;1.80;;;14.20;53.30;;;;;;5013144;28;20120;-68
2021/01/24 05:41:54;;;;;;;3.13;1.60;;;14.10;53.30;;;;;;5013312;28;20366;-67
2021/01/24 05:44:21;;;;;;;3.13;1.67;;;14.10;53.30;;;;;;5013332;28;20491;-67
2021/01/24 05:46:47;;;;;;;2.65;1.75;;;14.10;53.30;;;;;;5013253;28;20099;-69
2021/01/24 05:49:28;;;;;;;3.85;1.70;;;14.10;53.30;;;;;;5013284;28;20022;-68
2021/01/24 05:52:02;;;;;;;3.53;1.30;;;14.10;53.30;;;;;;5013539;28;20030;-68
2021/01/24 05:54:44;;;;;;;4.20;1.60;;;14.10;53.30;;;;;;5013535;28;20033;-69
2021/01/24 05:57:14;;;;;;;3.67;2.05;;;14.10;53.30;;;;;;5025904;28;20033;-68
2021/01/24 05:59:54;;;;;;;2.75;1.63;;;14.00;53.30;;;;;;5032568;28;20025;-69
2021/01/24 06:02:23;;;;;;;3.42;1.67;;;14.00;53.30;;;;;;5012895;28;20065;-71
2021/01/24 06:04:49;;;;;;;3.70;1.83;;;14.00;53.80;;;;;;5013054;28;20393;-70
2021/01/24 06:07:16;;;;;;;3.35;1.63;;;14.00;53.40;;;;;;5014215;28;20474;-67
2021/01/24 06:09:43;;;;;;;3.97;1.77;;;14.00;53.30;;;;;;5013041;28;20024;-69
2021/01/24 06:12:09;;;;;;;3.22;1.50;;;14.00;53.30;;;;;;5012933;28;20022;-68
2021/01/24 06:14:38;;;;;;;4.47;1.98;;;14.00;53.30;;;;;;5012469;28;20018;-67
2021/01/24 06:17:31;;;;;;;3.75;1.90;;;13.90;53.30;;;;;;5012588;28;20490;-67
2021/01/24 06:20:01;;;;;;;3.55;1.77;;;13.90;53.30;;;;;;5012252;28;20413;-67
2021/01/24 06:23:00;;;;;;;3.58;1.98;;;13.90;53.30;;;;;;5013043;28;20034;-67
2021/01/24 06:25:33;;;;;;;3.17;1.73;;;13.90;53.80;;;;;;5013172;28;20022;-68
2021/01/24 06:28:32;;;;;;;3.88;2.15;;;13.90;53.30;;;;;;5013001;28;20026;-67
2021/01/24 06:30:58;;;;;;;2.97;1.77;;;13.90;53.30;;;;;;5012644;28;20105;-67
2021/01/24 06:33:24;;;;;;;3.30;1.90;;;13.90;53.30;;;;;;5012644;28;20113;-70
2021/01/24 06:35:55;;;;;;;3.78;1.95;;;13.90;53.30;;;;;;5012345;28;20103;-69
2021/01/24 06:38:29;;;;;;;4.55;2.10;;;13.90;53.30;;;;;;5012380;28;20076;-70
2021/01/24 06:40:55;;;;;;;3.30;1.98;;;13.90;53.30;;;;;;5012208;28;20022;-65
2021/01/24 06:43:43;;;;;;;4.45;1.85;;;13.90;53.30;;;;;;5017691;28;20060;-72
2021/01/24 06:46:32;;;;;;;3.55;1.80;;;13.80;53.30;;;;;;5031797;28;20029;-68
2021/01/24 06:48:58;;;;;;;4.15;2.42;;;13.80;53.30;;;;;;5028844;28;20046;-67
2021/01/24 06:51:34;;;;;;;4.88;2.50;;;13.80;53.40;;;;;;5031975;28;20401;-70
2021/01/24 06:54:00;;;;;;;3.35;1.90;;;13.80;53.40;;;;;;5031932;28;20661;-68
2021/01/24 06:56:41;;;;;;;4.07;1.95;;;13.70;53.40;;;;;;5031793;28;20084;-73
2021/01/24 06:59:08;;;;;;;3.38;2.00;;;13.80;53.50;;;;;;5022364;28;20044;-66
2021/01/24 07:01:38;;;;;;;6.15;1.83;;;13.80;53.60;;;;;;5031637;28;20048;-67
2021/01/24 07:04:28;;;;;;;5.57;2.30;;;13.90;53.90;;;;;;5031912;28;20033;-73
2021/01/24 07:06:55;;;;;;;3.67;1.80;;;14.00;54.00;;;;;;5012684;28;20022;-73
2021/01/24 07:09:26;;;;;;;3.35;2.00;;;14.10;54.20;;;;;;5011996;28;20112;-69
2021/01/24 07:11:52;;;;;;;4.57;1.73;;;14.20;54.40;;;;;;5011821;28;20115;-90
2021/01/24 07:14:36;;;;;;;3.63;2.15;;;14.30;55.00;;;;;;5012495;28;20478;-76
2021/01/24 07:17:11;;;;;;;3.75;1.65;;;14.40;55.10;;;;;;5012427;28;20022;-73
2021/01/24 07:19:48;;;;;;;3.75;1.83;;;14.50;55.20;;;;;;5011774;28;20562;-71
2021/01/24 07:22:18;;;;;;;5.53;2.33;;;14.60;55.30;;;;;;5011739;28;20029;-70
2021/01/24 07:24:45;;;;;;;3.22;1.80;;;14.70;56.00;;;;;;5010036;28;20447;-70
2021/01/24 07:27:16;;;;;;;4.55;1.98;;;14.80;55.80;;;;;;5011532;28;20026;-74
2021/01/24 07:29:43;;;;;;;4.90;2.20;;;14.90;56.00;;;;;;5011355;28;20104;-73
2021/01/24 07:32:11;;;;;;;4.68;2.17;;;15.10;56.30;;;;;;5011485;28;20088;-78
2021/01/24 07:34:37;;;;;;;3.13;1.90;;;15.20;56.20;;;;;;5011820;28;20049;-68
2021/01/24 07:37:05;;;;;;;3.20;1.85;;;15.30;56.30;;;;;;5011382;28;20072;-74
2021/01/24 07:39:32;;;;;;;2.90;1.70;;;15.30;56.40;;;;;;5011853;28;20066;-69
2021/01/24 07:41:58;;;;;;;4.30;1.40;;;15.50;56.40;;;;;;5011758;28;20485;-75
2021/01/24 07:44:24;;;;;;;3.08;1.90;;;15.60;56.40;;;;;;5011371;28;20401;-75
2021/01/24 07:46:49;;;;;;;3.13;1.75;;;15.60;55.90;;;;;;5011136;28;20048;-67
2021/01/24 07:49:16;;;;;;;5.05;1.85;;;15.70;55.80;;;;;;5028851;28;20374;-77
2021/01/24 07:51:42;;;;;;;4.05;1.90;;;15.80;55.60;;;;;;5010984;28;20367;-70
2021/01/24 07:54:08;;;;;;;4.80;1.73;;;15.90;55.50;;;;;;5011526;28;20037;-69
2021/01/24 07:56:36;;;;;;;3.47;2.08;;;16.00;55.40;;;;;;5020881;28;20436;-72
2021/01/24 07:59:02;;;;;;;3.90;1.80;;;16.10;55.20;;;;;;5030311;28;20541;-68
2021/01/24 08:01:28;;;;;;;3.05;1.55;;;16.10;55.00;;;;;;5031424;28;20018;-70
2021/01/24 08:03:54;;;;;;;3.67;1.67;;;16.20;54.80;;;;;;5030851;28;20448;-79
2021/01/24 08:06:19;;;;;;;3.78;1.30;;;16.30;54.70;;;;;;5025935;28;20544;-76
2021/01/24 08:08:46;;;;;;;4.85;2.05;;;16.40;55.00;;;;;;5030113;28;20057;-72
2021/01/24 08:11:13;;;;;;;4.10;1.70;;;16.50;54.30;;;;;;5022226;28;20516;-70
2021/01/24 08:13:41;;;;;;;3.97;2.03;;;16.60;54.10;;;;;;5023145;28;20497;-71
2021/01/24 08:16:13;;;;;;;3.42;1.77;;;16.60;54.00;;;;;;5031032;28;20405;-72
2021/01/24 08:18:43;;;;;;;5.10;2.13;;;16.70;53.90;;;;;;5030115;28;20095;-69
2021/01/24 08:21:09;;;;;;;4.93;2.45;;;16.80;53.70;;;;;;5030820;28;20021;-70
2021/01/24 08:23:35;;;;;;;4.40;2.80;;;16.80;53.30;;;;;;5028826;28;20045;-68
2021/01/24 08:26:03;;;;;;;4.95;2.78;;;16.80;52.70;;;;;;5025701;28;20036;-66
2021/01/24 08:28:30;;;;;;;5.60;2.92;;;16.80;52.70;;;;;;5044541;28;20512;-67
2021/01/24 08:30:59;;;;;;;6.05;3.05;;;16.80;52.30;;;;;;5030252;28;20041;-68
2021/01/24 08:33:26;;;;;;;5.93;2.40;;;16.90;52.20;;;;;;5030714;28;20477;-67
2021/01/24 08:35:51;;;;;;;7.93;2.42;;;16.90;52.50;;;;;;5030005;28;20869;-67
2021/01/24 08:38:18;;;;;;;6.30;2.55;;;17.00;52.80;;;;;;5030610;28;20033;-66
2021/01/24 08:40:43;;;;;;;6.20;2.80;;;17.00;52.10;;;;;;5026881;28;20029;-67
2021/01/24 08:43:09;;;;;;;8.40;2.53;;;17.10;52.20;;;;;;5023302;28;20037;-66
2021/01/24 08:45:35;;;;;;;7.45;2.45;;;17.10;52.20;;;;;;5030328;28;20028;-66
2021/01/24 08:48:03;;;;;;;7.82;2.30;;;17.10;52.30;;;;;;5030727;28;20021;-69
2021/01/24 08:50:34;;;;;;;11.95;2.38;;;17.10;52.00;;;;;;5030641;28;20428;-66
2021/01/24 08:53:04;;;;;;;6.75;2.72;;;17.20;52.70;;;;;;5030681;28;20032;-66
2021/01/24 08:55:39;;;;;;;6.82;2.17;;;17.20;52.40;;;;;;5030918;28;20038;-70
2021/01/24 08:58:25;;;;;;;5.00;2.05;;;17.30;52.40;;;;;;5024407;28;20121;-66
2021/01/24 09:01:09;;;;;;;4.18;1.50;;;17.30;52.30;;;;;;5010460;28;20014;-68
2021/01/24 09:03:34;;;;;;;5.13;2.08;;;17.30;52.20;;;;;;5013187;28;20026;-66
2021/01/24 09:06:16;;;;;;;6.57;2.45;;;17.40;52.50;;;;;;5033816;28;20021;-66
2021/01/24 09:08:50;;;;;;;4.35;2.00;;;17.40;52.40;;;;;;5033790;28;20034;-69
2021/01/24 09:11:16;;;;;;;6.53;2.47;;;17.40;52.70;;;;;;5033046;28;20021;-76
2021/01/24 09:13:42;;;;;;;8.82;2.30;;;17.50;52.70;;;;;;5032500;28;20025;-70
2021/01/24 09:16:08;;;;;;;5.53;1.80;;;17.50;52.40;;;;;;5018966;28;20390;-66
2021/01/24 09:18:34;;;;;;;10.73;2.95;;;17.60;52.20;;;;;;5013688;28;20445;-66
2021/01/24 09:21:04;;;;;;;26.00;7.72;;;17.60;52.30;;;;;;5033715;28;20434;-79
2021/01/24 09:23:30;;;;;;;19.50;6.72;;;17.60;52.40;;;;;;5031765;28;20108;-69
2021/01/24 09:25:57;;;;;;;22.50;5.80;;;17.70;52.30;;;;;;5034152;28;20029;-67
2021/01/24 09:28:23;;;;;;;15.38;5.13;;;17.70;52.10;;;;;;5032073;28;20103;-67
2021/01/24 09:30:49;;;;;;;11.13;4.95;;;17.70;51.90;;;;;;5031635;28;20038;-68
2021/01/24 09:33:15;;;;;;;18.73;6.00;;;17.80;51.90;;;;;;5017075;28;20033;-68
2021/01/24 09:35:40;;;;;;;11.40;5.20;;;17.80;52.10;;;;;;5013324;28;20021;-68
2021/01/24 09:38:06;;;;;;;13.95;5.07;;;17.80;52.80;;;;;;5028280;28;20405;-70
2021/01/24 09:40:32;;;;;;;9.05;4.07;;;17.80;52.10;;;;;;5033108;28;20022;-68
2021/01/24 09:42:57;;;;;;;13.27;4.30;;;17.80;52.10;;;;;;5030527;28;20044;-71
2021/01/24 09:45:23;;;;;;;7.78;3.40;;;17.80;51.90;;;;;;5032311;28;20029;-67
2021/01/24 09:47:50;;;;;;;10.40;3.53;;;17.80;52.10;;;;;;5029210;28;20401;-66
2021/01/24 09:50:17;;;;;;;12.75;3.53;;;17.90;52.10;;;;;;5031013;28;20017;-70
2021/01/24 09:52:43;;;;;;;4.90;2.85;;;17.90;52.20;;;;;;5029996;28;20440;-67
2021/01/24 09:55:09;;;;;;;10.73;3.70;;;18.00;52.30;;;;;;5031704;28;20044;-67
2021/01/24 09:57:36;;;;;;;8.15;3.38;;;18.00;53.10;;;;;;5032455;28;20025;-69
2021/01/24 10:00:04;;;;;;;10.65;2.90;;;18.10;53.50;;;;;;5032557;28;20021;-73
2021/01/24 10:02:29;;;;;;;10.88;3.50;;;18.20;55.30;;;;;;5033243;28;20017;-69
2021/01/24 10:04:55;;;;;;;10.70;2.88;;;18.20;54.60;;;;;;5032459;28;20409;-69
2021/01/24 10:07:20;;;;;;;10.52;3.35;;;18.20;54.20;;;;;;5016543;28;20032;-67
2021/01/24 10:09:46;;;;;;;7.53;3.13;;;18.30;55.30;;;;;;5033106;28;20033;-68
2021/01/24 10:12:12;;;;;;;7.65;3.28;;;18.30;54.40;;;;;;5032792;28;20045;-67
2021/01/24 10:14:38;;;;;;;7.00;2.65;;;18.20;54.10;;;;;;5032077;28;20798;-67
2021/01/24 10:17:03;;;;;;;12.85;4.13;;;18.20;54.20;;;;;;5032478;28;20541;-66
2021/01/24 10:19:29;;;;;;;17.17;4.93;;;18.20;54.10;;;;;;5032477;28;20056;-67
2021/01/24 10:21:54;;;;;;;16.23;4.50;;;18.20;53.90;;;;;;5032176;28;20034;-68
2021/01/24 10:24:20;;;;;;;22.83;5.03;;;18.20;53.70;;;;;;5015588;28;20033;-69
2021/01/24 10:26:46;;;;;;;18.08;5.55;;;18.20;53.70;;;;;;5012177;28;20026;-68
2021/01/24 10:29:11;;;;;;;19.35;4.95;;;18.20;53.90;;;;;;5012569;28;20034;-70
2021/01/24 10:31:37;;;;;;;13.23;4.03;;;18.20;53.80;;;;;;5017878;28;20033;-72
2021/01/24 10:34:03;;;;;;;11.60;4.68;;;18.20;53.50;;;;;;5030510;28;20026;-72
2021/01/24 10:36:28;;;;;;;11.88;3.85;;;18.20;53.20;;;;;;5022070;28;20156;-74
2021/01/24 10:38:54;;;;;;;13.07;4.18;;;18.20;52.90;;;;;;5015633;28;20382;-71
2021/01/24 10:41:20;;;;;;;12.00;3.55;;;18.20;53.10;;;;;;5015605;28;20022;-72
2021/01/24 10:43:45;;;;;;;12.57;3.33;;;18.20;52.60;;;;;;5011957;28;20044;-71
2021/01/24 10:46:11;;;;;;;7.78;2.83;;;18.20;52.60;;;;;;5012183;28;20026;-76
2021/01/24 10:48:39;;;;;;;8.43;3.03;;;18.20;53.10;;;;;;5019381;28;20056;-72
2021/01/24 10:51:05;;;;;;;10.90;3.30;;;18.20;52.50;;;;;;5031777;28;20108;-72
2021/01/24 10:53:30;;;;;;;9.57;3.70;;;18.30;52.50;;;;;;5018711;28;20109;-75
2021/01/24 10:55:56;;;;;;;15.23;4.50;;;18.20;52.30;;;;;;5010411;28;20057;-75
2021/01/24 10:58:21;;;;;;;7.38;3.35;;;18.20;52.00;;;;;;5028034;28;20045;-73
2021/01/24 11:00:47;;;;;;;9.18;3.13;;;18.10;52.40;;;;;;5031376;28;20029;-70
2021/01/24 11:03:13;;;;;;;7.40;2.90;;;18.10;52.40;;;;;;5021276;28;20038;-74
2021/01/24 11:05:38;;;;;;;7.95;3.22;;;18.20;52.30;;;;;;5011518;28;20026;-69
2021/01/24 11:08:04;;;;;;;11.93;3.25;;;18.20;52.30;;;;;;5029806;28;20497;-68
2021/01/24 11:10:30;;;;;;;8.10;3.13;;;18.20;52.20;;;;;;5032054;28;20099;-69
2021/01/24 11:12:55;;;;;;;7.05;2.58;;;18.20;52.00;;;;;;5031029;28;20037;-70
2021/01/24 11:15:21;;;;;;;9.02;3.85;;;18.20;52.20;;;;;;5022690;28;20084;-69
2021/01/24 11:17:47;;;;;;;5.32;2.47;;;18.20;52.20;;;;;;5031201;28;20064;-70
2021/01/24 11:20:12;;;;;;;8.00;3.25;;;18.20;52.40;;;;;;5031497;28;20101;-75
2021/01/24 11:22:38;;;;;;;7.60;3.03;;;18.20;52.30;;;;;;5031168;28;20428;-70
2021/01/24 11:25:08;;;;;;;4.88;2.35;;;18.20;52.20;;;;;;5029194;28;20413;-68
2021/01/24 11:27:34;;;;;;;6.35;2.67;;;18.20;52.10;;;;;;5031103;28;20029;-68
2021/01/24 11:30:00;;;;;;;6.38;2.50;;;18.20;52.20;;;;;;5031686;28;20053;-70
2021/01/24 11:32:25;;;;;;;4.65;2.25;;;18.20;51.90;;;;;;5028832;28;20504;-68
2021/01/24 11:34:51;;;;;;;6.47;2.45;;;18.20;51.90;;;;;;5030860;28;20438;-67
2021/01/24 11:37:16;;;;;;;5.75;2.72;;;18.20;51.90;;;;;;5031336;28;20040;-78
2021/01/24 11:39:42;;;;;;;5.03;2.40;;;18.30;51.90;;;;;;5031234;28;20033;-71
2021/01/24 11:42:08;;;;;;;5.45;2.13;;;18.30;52.70;;;;;;5031332;28;20028;-71
2021/01/24 11:44:33;;;;;;;6.00;2.45;;;18.30;52.20;;;;;;5021354;28;20103;-68
2021/01/24 11:46:59;;;;;;;4.70;1.75;;;18.40;52.20;;;;;;5012757;28;20084;-71
2021/01/24 11:49:25;;;;;;;4.45;2.03;;;18.40;52.20;;;;;;5011825;28;20057;-74
2021/01/24 11:51:50;;;;;;;4.20;1.90;;;18.40;52.30;;;;;;5017920;28;20075;-80
2021/01/24 11:54:16;;;;;;;7.57;2.75;;;18.50;52.20;;;;;;5030893;28;20060;-69
2021/01/24 11:56:42;;;;;;;7.25;2.60;;;18.50;52.40;;;;;;5012405;28;20064;-79
2021/01/24 11:59:08;;;;;;;6.75;2.25;;;18.50;52.50;;;;;;5011649;28;20042;-73
2021/01/24 12:01:34;;;;;;;7.00;2.00;;;18.50;52.70;;;;;;5024992;28;20029;-77
2021/01/24 12:03:59;;;;;;;4.20;2.13;;;18.60;52.90;;;;;;5031231;28;20017;-69
2021/01/24 12:06:26;;;;;;;4.38;2.30;;;18.60;53.10;;;;;;5031233;28;20072;-75
2021/01/24 12:08:51;;;;;;;5.40;1.90;;;18.60;53.30;;;;;;5029275;28;20044;-72
2021/01/24 12:11:17;;;;;;;4.80;1.95;;;18.60;53.30;;;;;;5029592;28;20033;-74
2021/01/24 12:13:42;;;;;;;4.20;1.83;;;18.60;53.40;;;;;;5029575;28;20025;-80
2021/01/24 12:16:08;;;;;;;2.80;1.58;;;18.60;53.50;;;;;;5030857;28;20045;-80
2021/01/24 12:18:34;;;;;;;4.00;1.85;;;18.60;53.50;;;;;;5030820;28;20473;-75
2021/01/24 12:20:59;;;;;;;6.80;1.80;;;18.70;53.70;;;;;;5027996;28;20040;-69
2021/01/24 12:23:25;;;;;;;5.35;2.00;;;18.70;53.80;;;;;;5019760;28;20406;-69
2021/01/24 12:25:50;;;;;;;5.82;1.83;;;18.70;53.90;;;;;;5015030;28;20113;-68
2021/01/24 12:28:16;;;;;;;3.65;1.40;;;18.70;54.00;;;;;;5029957;28;20502;-67
2021/01/24 12:30:42;;;;;;;6.43;1.88;;;18.70;53.90;;;;;;5022040;28;20060;-81
2021/01/24 12:33:11;;;;;;;3.33;1.30;;;18.80;53.90;;;;;;5027432;28;20108;-75
2021/01/24 12:35:40;;;;;;;3.70;1.63;;;18.80;53.70;;;;;;5028398;28;20164;-72
2021/01/24 12:38:07;;;;;;;4.57;1.60;;;18.80;54.00;;;;;;5031648;28;20109;-83
2021/01/24 12:40:33;;;;;;;2.72;1.15;;;18.90;54.10;;;;;;5032476;28;20025;-69
2021/01/24 12:42:59;;;;;;;3.53;1.83;;;18.90;54.20;;;;;;5033068;28;20148;-72
2021/01/24 12:45:25;;;;;;;5.22;1.80;;;19.00;54.20;;;;;;5032732;28;20100;-67
2021/01/24 12:47:51;;;;;;;5.80;1.63;;;19.00;54.10;;;;;;5032859;28;20029;-83